• Join FlightAware (Why Join?)
  • Login
  • US Flag 
12:05AM EDT


 

Airport Tracker/Info


-or-


 

Live Flight TrackerFlight Track Log ✈ N4113B ✈ 01-Jan-2014 ✈ KACK - KBWI

Flight Track Log - Related Links

Times and Time Zones

All times are in EST time to prevent confusion due to time zone crossing. See the N4113B flight status page for this flight to view local times or setup timezone preferences in your user account.

Time Position Orientation Groundspeed Altitude Reporting Facility
EST Latitude Longitude Course Direction KTS MPH feet Rate Location/Type
04:37PM 41.2026 -70.4793 261° West  Level FlightAware Approximate
04:38PM 41.1995 -70.5051 263° West  Level FlightAware Approximate
04:39PM 41.1970 -70.5311 263° West  Level FlightAware Approximate
04:40PM 41.1946 -70.5571 263° West  Level FlightAware Approximate
04:41PM 41.1921 -70.5831 263° West  Level FlightAware Approximate
04:42PM 41.1896 -70.6091 263° West  Level FlightAware Approximate
04:43PM 41.1871 -70.6351 263° West  Level FlightAware Approximate
04:44PM 41.1847 -70.6611 263° West  Level FlightAware Approximate
04:45PM 41.1822 -70.6871 263° West  Level FlightAware Approximate
04:46PM 41.1797 -70.7130 263° West  Level FlightAware Approximate
04:47PM 41.1772 -70.7390 263° West  Level FlightAware Approximate
04:48PM 41.1746 -70.7650 263° West  Level FlightAware Approximate
04:49PM 41.1721 -70.7910 263° West  Level FlightAware Approximate
04:50PM 41.1696 -70.8169 263° West  Level FlightAware Approximate
04:51PM 41.1671 -70.8429 263° West  Level FlightAware Approximate
04:52PM 41.1645 -70.8689 263° West  Level FlightAware Approximate
04:53PM 41.1620 -70.8949 263° West  Level FlightAware Approximate
04:54PM 41.1595 -70.9208 263° West  Level FlightAware Approximate
04:55PM 41.1569 -70.9468 263° West  Level FlightAware Approximate
04:56PM 41.1543 -70.9727 263° West  Level FlightAware Approximate
04:57PM 41.1518 -70.9987 263° West  Level FlightAware Approximate
04:58PM 41.1493 -71.0247 263° West  Level FlightAware Approximate
04:59PM 41.1470 -71.0507 263° West  Level FlightAware Approximate
05:00PM 41.1447 -71.0767 263° West  Level FlightAware Approximate
05:01PM 41.1423 -71.1027 263° West  Level FlightAware Approximate
05:02PM 41.1400 -71.1287 263° West  Level FlightAware Approximate
05:03PM 41.1377 -71.1547 263° West  Level FlightAware Approximate
05:04PM 41.1353 -71.1806 263° West  Level FlightAware Approximate
05:05PM 41.1330 -71.2066 263° West  Level FlightAware Approximate
05:06PM 41.1307 -71.2326 263° West  Level FlightAware Approximate
05:07PM 41.1283 -71.2586 263° West  Level FlightAware Approximate
05:08PM 41.1259 -71.2846 263° West  Level FlightAware Approximate
05:09PM 41.1236 -71.3106 263° West  Level FlightAware Approximate
05:10PM 41.1212 -71.3366 263° West  Level FlightAware Approximate
05:11PM 41.1188 -71.3625 263° West  Level FlightAware Approximate
05:12PM 41.1165 -71.3885 263° West  Level FlightAware Approximate
05:13PM 41.1141 -71.4145 263° West  Level FlightAware Approximate
05:14PM 41.1117 -71.4405 263° West  Level FlightAware Approximate
05:15PM 41.1093 -71.4664 263° West  Level FlightAware Approximate
05:16PM 41.1068 -71.4924 263° West  Level FlightAware Approximate
05:17PM 41.1044 -71.5184 263° West  Level FlightAware Approximate
05:18PM 41.1020 -71.5443 263° West  Level FlightAware Approximate
05:19PM 41.0996 -71.5703 263° West  Level FlightAware Approximate
05:20PM 41.0972 -71.5963 263° West  Level FlightAware Approximate
05:21PM 41.0947 -71.6222 263° West  Level FlightAware Approximate
05:22PM 41.0923 -71.6482 263° West  Level FlightAware Approximate
05:23PM 41.0898 -71.6741 263° West  Level FlightAware Approximate
05:24PM 41.0874 -71.7001 263° West  Level FlightAware Approximate
05:25PM 41.0849 -71.7260 263° West  Level FlightAware Approximate
05:26PM 41.0825 -71.7520 263° West  Level FlightAware Approximate
05:27PM 41.0800 -71.7779 263° West  Level FlightAware Approximate
05:28PM 41.0775 -71.8039 263° West  Level FlightAware Approximate
05:29PM 41.0750 -71.8298 263° West  Level FlightAware Approximate
05:30PM 41.0725 -71.8558 263° West  Level FlightAware Approximate
05:31PM 41.0700 -71.8817 263° West  Level FlightAware Approximate
05:32PM 41.0675 -71.9076 263° West  Level FlightAware Approximate
05:33PM 41.0611 -71.9320 244° Southwest  Level FlightAware Approximate
05:34PM 41.0526 -71.9556 244° Southwest  Level FlightAware Approximate
05:35PM 41.0440 -71.9791 244° Southwest  Level FlightAware Approximate
05:36PM 41.0354 -72.0027 244° Southwest  Level FlightAware Approximate
05:37PM 41.0269 -72.0262 244° Southwest  Level FlightAware Approximate
05:38PM 41.0183 -72.0497 244° Southwest  Level FlightAware Approximate
05:39PM 41.0097 -72.0733 244° Southwest  Level FlightAware Approximate
05:40PM 41.0012 -72.0968 244° Southwest  Level FlightAware Approximate
05:41PM 40.9925 -72.1203 244° Southwest  Level FlightAware Approximate
05:42PM 40.9839 -72.1438 244° Southwest  Level FlightAware Approximate
05:43PM 40.9753 -72.1673 244° Southwest  Level FlightAware Approximate
05:44PM 40.9666 -72.1907 244° Southwest  Level FlightAware Approximate
05:45PM 40.9580 -72.2142 244° Southwest  Level FlightAware Approximate
05:46PM 40.9494 -72.2376 244° Southwest  Level FlightAware Approximate
05:47PM 40.9407 -72.2611 244° Southwest  Level FlightAware Approximate
05:48PM 40.9320 -72.2845 244° Southwest  Level FlightAware Approximate
05:49PM 40.9234 -72.3080 244° Southwest  Level FlightAware Approximate
05:50PM 40.9147 -72.3314 244° Southwest  Level FlightAware Approximate
05:51PM 40.9061 -72.3548 244° Southwest  Level FlightAware Approximate
05:52PM 40.8974 -72.3783 244° Southwest  Level FlightAware Approximate
05:53PM 40.8887 -72.4017 244° Southwest  Level FlightAware Approximate
05:54PM 40.8800 -72.4251 244° Southwest  Level FlightAware Approximate
05:55PM 40.8713 -72.4485 244° Southwest  Level FlightAware Approximate
05:56PM 40.8626 -72.4719 244° Southwest  Level FlightAware Approximate
05:57PM 40.8539 -72.4952 244° Southwest  Level FlightAware Approximate
05:58PM 40.8452 -72.5186 244° Southwest  Level FlightAware Approximate
05:59PM 40.8365 -72.5420 244° Southwest  Level FlightAware Approximate
06:00PM 40.8278 -72.5654 244° Southwest  Level FlightAware Approximate
06:01PM 40.8190 -72.5887 244° Southwest  Level FlightAware Approximate
06:02PM 40.8103 -72.6121 244° Southwest  Level FlightAware Approximate
06:03PM 40.8016 -72.6355 244° Southwest  Level FlightAware Approximate
06:04PM 40.7929 -72.6588 244° Southwest  Level FlightAware Approximate
06:05PM 40.7841 -72.6821 244° Southwest  Level FlightAware Approximate
06:06PM 40.7754 -72.7055 244° Southwest  Level FlightAware Approximate
06:07PM 40.7666 -72.7288 244° Southwest  Level FlightAware Approximate
06:08PM 40.7579 -72.7521 244° Southwest  Level FlightAware Approximate
06:09PM 40.7491 -72.7754 244° Southwest  Level FlightAware Approximate
06:10PM 40.7404 -72.7987 244° Southwest  Level FlightAware Approximate
06:11PM 40.7316 -72.8220 244° Southwest  Level FlightAware Approximate
06:12PM 40.7228 -72.8453 244° Southwest  Level FlightAware Approximate
06:13PM 40.7141 -72.8686 244° Southwest  Level FlightAware Approximate
06:14PM 40.7053 -72.8919 244° Southwest  Level FlightAware Approximate
06:15PM 40.6965 -72.9152 244° Southwest  Level FlightAware Approximate
06:16PM 40.6877 -72.9385 244° Southwest  Level FlightAware Approximate
06:17PM 40.6789 -72.9617 243° Southwest  Level FlightAware Approximate
06:18PM 40.6700 -72.9849 243° Southwest  Level FlightAware Approximate
06:19PM 40.6611 -73.0081 243° Southwest  Level FlightAware Approximate
06:20PM 40.6522 -73.0313 243° Southwest  Level FlightAware Approximate
06:21PM 40.6434 -73.0545 243° Southwest  Level FlightAware Approximate
06:22PM 40.6345 -73.0777 243° Southwest  Level FlightAware Approximate
06:23PM 40.6256 -73.1009 243° Southwest  Level FlightAware Approximate
06:24PM 40.6167 -73.1241 243° Southwest  Level FlightAware Approximate
06:25PM 40.6078 -73.1472 243° Southwest  Level FlightAware Approximate
06:26PM 40.5989 -73.1704 243° Southwest  Level FlightAware Approximate
06:27PM 40.5900 -73.1936 243° Southwest  Level FlightAware Approximate
06:28PM 40.5810 -73.2167 243° Southwest  Level FlightAware Approximate
06:29PM 40.5721 -73.2399 243° Southwest  Level FlightAware Approximate
06:30PM 40.5632 -73.2630 243° Southwest  Level FlightAware Approximate
06:31PM 40.5543 -73.2861 243° Southwest  Level FlightAware Approximate
06:32PM 40.5453 -73.3093 243° Southwest  Level FlightAware Approximate
06:33PM 40.5364 -73.3324 243° Southwest  Level FlightAware Approximate
06:34PM 40.5275 -73.3555 243° Southwest  Level FlightAware Approximate
06:35PM 40.5185 -73.3786 243° Southwest  Level FlightAware Approximate
06:36PM 40.5094 -73.4016 242° Southwest  Level FlightAware Approximate
06:37PM 40.5003 -73.4246 242° Southwest  Level FlightAware Approximate
06:38PM 40.4912 -73.4476 242° Southwest  Level FlightAware Approximate
06:39PM 40.4820 -73.4706 242° Southwest  Level FlightAware Approximate
06:40PM 40.4729 -73.4935 242° Southwest  Level FlightAware Approximate
06:41PM 40.4638 -73.5165 242° Southwest  Level FlightAware Approximate
06:42PM 40.4546 -73.5395 242° Southwest  Level FlightAware Approximate
06:43PM 40.4455 -73.5624 242° Southwest  Level FlightAware Approximate
06:44PM 40.4363 -73.5854 242° Southwest  Level FlightAware Approximate
06:45PM 40.4272 -73.6083 242° Southwest  Level FlightAware Approximate
06:46PM 40.4180 -73.6312 242° Southwest  Level FlightAware Approximate
06:47PM 40.4089 -73.6541 242° Southwest  Level FlightAware Approximate
06:48PM 40.3997 -73.6771 242° Southwest  Level FlightAware Approximate
06:49PM 40.3905 -73.7000 242° Southwest  Level FlightAware Approximate
06:50PM 40.3813 -73.7229 242° Southwest  Level FlightAware Approximate
06:51PM 40.3722 -73.7458 242° Southwest  Level FlightAware Approximate
06:52PM 40.3630 -73.7687 242° Southwest  Level FlightAware Approximate
06:53PM 40.3538 -73.7916 242° Southwest  Level FlightAware Approximate
06:54PM 40.3446 -73.8144 242° Southwest  Level FlightAware Approximate
06:55PM 40.3354 -73.8373 242° Southwest  Level FlightAware Approximate
06:56PM 40.3262 -73.8602 242° Southwest  Level FlightAware Approximate
06:57PM 40.3170 -73.8830 242° Southwest  Level FlightAware Approximate
06:58PM 40.3078 -73.9059 242° Southwest  Level FlightAware Approximate
06:59PM 40.2985 -73.9287 242° Southwest  Level FlightAware Approximate
07:00PM 40.2893 -73.9516 242° Southwest  Level FlightAware Approximate
07:01PM 40.2801 -73.9744 242° Southwest  Level FlightAware Approximate
07:02PM 40.2709 -73.9973 242° Southwest  Level FlightAware Approximate
07:03PM 40.2616 -74.0201 242° Southwest  Level FlightAware Approximate
07:04PM 40.2524 -74.0429 242° Southwest  Level FlightAware Approximate
07:05PM 40.2431 -74.0657 242° Southwest  Level FlightAware Approximate
07:06PM 40.2339 -74.0885 242° Southwest  Level FlightAware Approximate
07:07PM 40.2246 -74.1113 242° Southwest  Level FlightAware Approximate
07:08PM 40.2154 -74.1341 242° Southwest  Level FlightAware Approximate
07:09PM 40.2061 -74.1569 242° Southwest  Level FlightAware Approximate
07:10PM 40.1968 -74.1797 242° Southwest  Level FlightAware Approximate
07:11PM 40.1876 -74.2025 242° Southwest  Level FlightAware Approximate
07:12PM 40.1783 -74.2252 242° Southwest  Level FlightAware Approximate
07:13PM 40.1690 -74.2480 242° Southwest  Level FlightAware Approximate
07:14PM 40.1597 -74.2707 242° Southwest  Level FlightAware Approximate
07:15PM 40.1504 -74.2935 242° Southwest  Level FlightAware Approximate
07:16PM 40.1411 -74.3162 242° Southwest  Level FlightAware Approximate
07:17PM 40.1318 -74.3390 242° Southwest  Level FlightAware Approximate
07:18PM 40.1225 -74.3617 242° Southwest  Level FlightAware Approximate
07:19PM 40.1132 -74.3844 242° Southwest  Level FlightAware Approximate
07:20PM 40.1039 -74.4071 242° Southwest  Level FlightAware Approximate
07:21PM 40.0948 -74.4300 243° Southwest  Level FlightAware Approximate
07:22PM 40.0859 -74.4530 243° Southwest  Level FlightAware Approximate
07:23PM 40.0770 -74.4760 243° Southwest  Level FlightAware Approximate
07:24PM 40.0681 -74.4990 243° Southwest  Level FlightAware Approximate
07:25PM 40.0592 -74.5219 243° Southwest  Level FlightAware Approximate
07:26PM 40.0503 -74.5449 243° Southwest  Level FlightAware Approximate
07:27PM 40.0413 -74.5679 243° Southwest  Level FlightAware Approximate
07:28PM 40.0324 -74.5908 243° Southwest  Level FlightAware Approximate
07:29PM 40.0235 -74.6138 243° Southwest  Level FlightAware Approximate
07:30PM 40.0145 -74.6367 243° Southwest  Level FlightAware Approximate
07:31PM 40.0056 -74.6597 243° Southwest  Level FlightAware Approximate
07:32PM 39.9967 -74.6826 243° Southwest  Level FlightAware Approximate
07:33PM 39.9877 -74.7055 243° Southwest  Level FlightAware Approximate
07:34PM 39.9786 -74.7283 242° Southwest  Level FlightAware Approximate
07:35PM 39.9694 -74.7511 242° Southwest  Level FlightAware Approximate
07:36PM 39.9602 -74.7738 242° Southwest  Level FlightAware Approximate
07:37PM 39.9510 -74.7966 242° Southwest  Level FlightAware Approximate
07:38PM 39.9418 -74.8193 242° Southwest  Level FlightAware Approximate
07:39PM 39.9326 -74.8420 242° Southwest  Level FlightAware Approximate
07:40PM 39.9233 -74.8648 242° Southwest  Level FlightAware Approximate
07:41PM 39.9141 -74.8875 242° Southwest  Level FlightAware Approximate
07:42PM 39.9049 -74.9102 242° Southwest  Level FlightAware Approximate
07:43PM 39.8956 -74.9329 242° Southwest  Level FlightAware Approximate
07:44PM 39.8864 -74.9556 242° Southwest  Level FlightAware Approximate
07:45PM 39.8772 -74.9783 242° Southwest  Level FlightAware Approximate
07:46PM 39.8679 -75.0010 242° Southwest  Level FlightAware Approximate
07:47PM 39.8587 -75.0236 242° Southwest  Level FlightAware Approximate
07:48PM 39.8494 -75.0463 242° Southwest  Level FlightAware Approximate
07:49PM 39.8401 -75.0690 242° Southwest  Level FlightAware Approximate
07:50PM 39.8309 -75.0916 242° Southwest  Level FlightAware Approximate
07:51PM 39.8216 -75.1143 242° Southwest  Level FlightAware Approximate
07:52PM 39.8123 -75.1369 242° Southwest  Level FlightAware Approximate
07:53PM 39.8030 -75.1596 242° Southwest  Level FlightAware Approximate
07:54PM 39.7937 -75.1822 242° Southwest  Level FlightAware Approximate
07:55PM 39.7845 -75.2048 242° Southwest  Level FlightAware Approximate
07:56PM 39.7752 -75.2274 242° Southwest  Level FlightAware Approximate
07:57PM 39.7659 -75.2501 242° Southwest  Level FlightAware Approximate
07:58PM 39.7566 -75.2727 242° Southwest  Level FlightAware Approximate
07:59PM 39.7472 -75.2953 242° Southwest  Level FlightAware Approximate
08:00PM 39.7379 -75.3179 242° Southwest  Level FlightAware Approximate
08:01PM 39.7286 -75.3405 242° Southwest  Level FlightAware Approximate
08:02PM 39.7193 -75.3631 242° Southwest  Level FlightAware Approximate
08:03PM 39.7100 -75.3856 242° Southwest  Level FlightAware Approximate
08:04PM 39.7006 -75.4082 242° Southwest  Level FlightAware Approximate
08:05PM 39.6913 -75.4308 242° Southwest  Level FlightAware Approximate
08:06PM 39.6820 -75.4533 242° Southwest  Level FlightAware Approximate
08:07PM 39.6726 -75.4759 242° Southwest  Level FlightAware Approximate
08:08PM 39.6633 -75.4985 242° Southwest  Level FlightAware Approximate
08:09PM 39.6539 -75.5210 242° Southwest  Level FlightAware Approximate
08:10PM 39.6446 -75.5435 242° Southwest  Level FlightAware Approximate
08:11PM 39.6352 -75.5661 242° Southwest  Level FlightAware Approximate
08:12PM 39.6259 -75.5886 242° Southwest  Level FlightAware Approximate
08:13PM 39.6165 -75.6111 242° Southwest  Level FlightAware Approximate
08:14PM 39.6071 -75.6336 242° Southwest  Level FlightAware Approximate
08:15PM 39.5977 -75.6561 242° Southwest  Level FlightAware Approximate
08:16PM 39.5883 -75.6786 242° Southwest  Level FlightAware Approximate
08:17PM 39.5790 -75.7011 242° Southwest  Level FlightAware Approximate
08:18PM 39.5696 -75.7236 242° Southwest  Level FlightAware Approximate
08:19PM 39.5602 -75.7461 242° Southwest  Level FlightAware Approximate
08:20PM 39.5508 -75.7686 242° Southwest  Level FlightAware Approximate
08:21PM 39.5414 -75.7910 242° Southwest  Level FlightAware Approximate
08:22PM 39.5320 -75.8135 242° Southwest  Level FlightAware Approximate
08:23PM 39.5226 -75.8360 241° Southwest  Level FlightAware Approximate
08:24PM 39.5131 -75.8584 241° Southwest  Level FlightAware Approximate
08:25PM 39.5037 -75.8808 241° Southwest  Level FlightAware Approximate
08:26PM 39.4943 -75.9033 241° Southwest  Level FlightAware Approximate
08:27PM 39.4848 -75.9257 241° Southwest  Level FlightAware Approximate
08:28PM 39.4754 -75.9481 241° Southwest  Level FlightAware Approximate
08:29PM 39.4659 -75.9705 241° Southwest  Level FlightAware Approximate
08:30PM 39.4565 -75.9929 241° Southwest  Level FlightAware Approximate
08:31PM 39.4470 -76.0153 241° Southwest  Level FlightAware Approximate
08:32PM 39.4376 -76.0377 241° Southwest  Level FlightAware Approximate
08:33PM 39.4281 -76.0601 241° Southwest  Level FlightAware Approximate
08:34PM 39.4186 -76.0825 241° Southwest  Level FlightAware Approximate
08:35PM 39.4091 -76.1049 241° Southwest  Level FlightAware Approximate
08:36PM 39.3997 -76.1272 241° Southwest  Level FlightAware Approximate
08:37PM 39.3902 -76.1496 241° Southwest  Level FlightAware Approximate
08:38PM 39.3807 -76.1720 241° Southwest  Level FlightAware Approximate
08:39PM 39.3712 -76.1943 241° Southwest  Level FlightAware Approximate
08:40PM 39.3617 -76.2167 241° Southwest  Level FlightAware Approximate
08:41PM 39.3522 -76.2390 241° Southwest  Level FlightAware Approximate
08:42PM 39.3427 -76.2613 241° Southwest  Level FlightAware Approximate
08:43PM 39.3332 -76.2837 247° West  Level FlightAware Approximate
08:44PM 39.3254 -76.3071 247° West  Level FlightAware Approximate
08:45PM 39.3176 -76.3305 247° West  Level FlightAware Approximate
08:46PM 39.3073 -76.3521 237° Southwest  Level FlightAware Approximate
08:47PM 39.2966 -76.3735 237° Southwest  Level FlightAware Approximate
08:48PM 39.2859 -76.3949 237° Southwest  Level FlightAware Approximate
08:49PM 39.2752 -76.4163 237° Southwest  Level FlightAware Approximate
08:50PM 39.2651 -76.4381 247° West  Level FlightAware Approximate
08:51PM 39.2573 -76.4615 247° West  Level FlightAware Approximate
08:52PM 39.2495 -76.4849 247° West  Level FlightAware Approximate
08:53PM 39.2417 -76.5083 247° West  Level FlightAware Approximate
08:54PM 39.2339 -76.5316 247° West  Level FlightAware Approximate
08:55PM 39.2189 -76.5478 218° Southwest  Level FlightAware Approximate
08:56PM 39.2033 -76.5634 218° Southwest  Level FlightAware Approximate
08:57PM 39.1939 -76.5851 247° West  Level FlightAware Approximate
08:58PM 39.1861 -76.6085 247° West  Level FlightAware Approximate
08:59PM 39.1783 -76.6318 247° West  Level FlightAware Approximate
09:00PM 39.1705 -76.6552 247° West  Level FlightAware Approximate
09:01PM 39.1667 -76.6667 247° West  Level FlightAware Approximate
09:02PM 39.1754 -76.6683 247° West  Level Estimated
09:03PM 39.1754 -76.6683 247° West  Level Estimated
09:04PM 39.1754 -76.6683 247° West  Level Estimated
09:05PM 39.1754 -76.6683 247° West  Level Estimated
09:06PM 39.1754 -76.6683 247° West  Level Estimated
09:07PM 39.1754 -76.6683 247° West  Level Estimated
09:08PM 39.1754 -76.6683 247° West  Level Estimated
09:09PM 39.1754 -76.6683 247° West  Level Estimated
09:10PM 39.1754 -76.6683 247° West  Level Estimated
09:11PM 39.1754 -76.6683 247° West  Level Estimated
09:12PM 39.1754 -76.6683 247° West  Level Estimated
09:13PM 39.1754 -76.6683 247° West  Level Estimated
09:14PM 39.1754 -76.6683 247° West  Level Estimated
09:15PM 39.1754 -76.6683 247° West  Level Estimated
09:16PM 39.1754 -76.6683 247° West  Level Estimated